Chan Gurney Municipal Airport
KYKN : rendu visible

Aérodrome :











RETROUVEZ-NOUS SUR...

 
LOGIN :

S'inscrire | Disclaimer

   EN    FR    IT 

 









Légende :    VFR   VFR Marginal   IFR   IFR Intensif   IFR Très Intensif
Visi : 
Plafond : 
>= 8 km
>= 3000ft
5 à 8 km
1000 à 3000 ft
1500m à 5 km
500 à 1000 ft
800 à 1500m
200 à 500 ft
< 800m
< 200 ft
Symboles :   Orages  Brouillard  Fortes neiges  Fortes précipitations  Vent > 20 kt






- Altitude de l'aérodrome : 1306 ft


KYKN - Chan Gurney Municipal

DERNIER METAR :
  • 100756Z AUTO 32015G22KT 9SM -SN FEW020 OVC060 M06/M09 A3009 RMK AO2 SLP224 P0000 T10561089 FZRANO

METARs EXPIRÉS :
  • 100656Z AUTO 31011KT 10SM -SN OVC055 M05/M08 A3005 RMK AO2 SNE19B55 SLP210 P0000 T10501078 FZRANO
  • 100556Z AUTO 00000KT 9SM -SN FEW039 OVC055 M09/M11 A3003 RMK AO2 SNB45 SLP206 P0000 60000 T10891106 11078 21117 400061133 53013 FZRANO

TAF N/A



MET'MAP, la Météo Aéronautique d'un coup d'oeil ! - Copyright ORBIFLY Décembre 2007 - Disclaimer

ORBIFLY MET'MAP TEAM :

Programmation & Développement : Alexandra Zaïnal
Sur une idée originale de : Baudouin d'Aumeries
Assistance à la programmation : Marc-Olivier Méhu
Soutien technique & logistique : Manuel Goepfert

Contact : metmap@orbifly.com




SOURCES & CREDITS :

   NOAA       Earth
Advisory